Terminal Aerodrome Forecast
Issued by NWS

Home | Current Version | Previous Version | Text Only | Print | Product List | Glossary On
Versions: 1 2 3 4 5 6 7 8 9 10 11 12 13 14 15 16 17 18 19 20 21 22
000
FTUS43 KGRB 311721
TAFCWA
TAF
KCWA 311721Z 3118/0118 34008G14KT P6SM SCT040
      TEMPO 3118/3122 BKN040
     FM010000 36005KT P6SM FEW040
     FM010800 01004KT P6SM SCT030
     FM011500 03007KT P6SM BKN030=

USA.gov is the U.S. government's official web portal to all federal, state and local government web resources and services.